createdAt,value
2023-05-19T00:00:21.080Z,10.43
2023-05-19T00:03:06.361Z,10.53
2023-05-19T00:05:51.141Z,10.60
2023-05-19T00:08:36.253Z,10.60
2023-05-19T00:11:21.231Z,10.58
2023-05-19T00:14:06.370Z,10.57
2023-05-19T00:16:51.279Z,10.57
2023-05-19T00:19:36.340Z,10.52
2023-05-19T00:22:21.313Z,10.46
2023-05-19T00:25:06.316Z,10.40
2023-05-19T00:27:51.243Z,10.32
2023-05-19T00:30:36.254Z,10.27
2023-05-19T00:33:21.399Z,10.28
2023-05-19T00:36:06.374Z,10.28
2023-05-19T00:38:51.415Z,10.28
2023-05-19T00:41:36.598Z,10.20
2023-05-19T00:44:21.492Z,10.19
2023-05-19T00:47:06.616Z,10.16
2023-05-19T00:49:51.493Z,10.10
2023-05-19T00:52:36.415Z,10.09
2023-05-19T00:55:21.255Z,10.09
2023-05-19T00:58:06.247Z,10.10
2023-05-19T01:00:51.188Z,10.10
2023-05-19T01:03:36.381Z,10.11
2023-05-19T01:06:21.223Z,10.04
2023-05-19T01:09:06.209Z,10.00
2023-05-19T01:11:51.164Z,9.98
2023-05-19T01:14:36.220Z,9.95
2023-05-19T01:17:21.302Z,9.92
2023-05-19T01:20:06.261Z,9.88
2023-05-19T01:22:51.547Z,9.92
2023-05-19T01:25:36.441Z,9.97
2023-05-19T01:28:21.394Z,10.06
2023-05-19T01:31:06.437Z,10.11
2023-05-19T01:33:51.374Z,10.08
2023-05-19T01:36:36.436Z,10.07
2023-05-19T01:39:21.281Z,10.07
2023-05-19T01:42:06.351Z,10.05
2023-05-19T01:44:51.158Z,10.00
2023-05-19T01:47:36.085Z,10.00
2023-05-19T01:50:20.989Z,10.03
2023-05-19T01:53:05.971Z,9.98
2023-05-19T01:55:50.949Z,9.97
2023-05-19T01:58:35.901Z,10.00
2023-05-19T02:01:21.053Z,10.03
2023-05-19T02:04:06.030Z,10.02
2023-05-19T02:06:51.029Z,10.02
2023-05-19T02:09:36.027Z,10.04
2023-05-19T02:12:21.216Z,10.04
2023-05-19T02:15:06.115Z,10.10
2023-05-19T02:17:51.135Z,10.12
2023-05-19T02:20:36.022Z,10.11
2023-05-19T02:23:20.927Z,10.12
2023-05-19T02:26:05.973Z,10.10
2023-05-19T02:28:50.995Z,10.05
2023-05-19T02:31:35.968Z,10.07
2023-05-19T02:34:21.020Z,10.09
2023-05-19T02:37:06.140Z,10.09
2023-05-19T02:39:51.078Z,10.02
2023-05-19T02:42:36.018Z,9.90
2023-05-19T02:45:21.216Z,9.84
2023-05-19T02:48:06.105Z,9.83
2023-05-19T02:50:51.184Z,9.82
2023-05-19T02:53:36.094Z,9.74
2023-05-19T02:56:21.219Z,9.74
2023-05-19T02:59:06.130Z,9.72
2023-05-19T03:01:51.221Z,9.73
2023-05-19T03:04:36.178Z,9.73
2023-05-19T03:07:21.125Z,9.71
2023-05-19T03:10:06.202Z,9.73
2023-05-19T03:12:51.152Z,9.76
2023-05-19T03:15:36.289Z,9.75
2023-05-19T03:18:21.237Z,9.77
2023-05-19T03:21:06.168Z,9.78
2023-05-19T03:23:51.060Z,9.81
2023-05-19T03:26:36.070Z,9.82
2023-05-19T03:29:21.092Z,9.80
2023-05-19T03:32:05.999Z,9.79
2023-05-19T03:34:51.197Z,9.74
2023-05-19T03:37:36.079Z,9.68
2023-05-19T03:40:21.195Z,9.66
2023-05-19T03:43:06.181Z,9.72
2023-05-19T03:45:51.276Z,9.66
2023-05-19T03:48:36.328Z,9.60
2023-05-19T03:51:21.314Z,9.59
2023-05-19T03:54:06.244Z,9.60
2023-05-19T03:56:51.229Z,9.61
2023-05-19T03:59:36.238Z,9.58
2023-05-19T04:02:21.112Z,9.59
2023-05-19T04:05:06.153Z,9.57
2023-05-19T04:07:51.053Z,9.60
2023-05-19T04:10:36.086Z,9.62
2023-05-19T04:13:21.035Z,9.65
2023-05-19T04:16:05.936Z,9.65
2023-05-19T04:18:50.970Z,9.62
2023-05-19T04:21:35.886Z,9.63
2023-05-19T04:24:20.876Z,9.65
2023-05-19T04:27:05.744Z,9.66
2023-05-19T04:29:50.839Z,9.72
2023-05-19T04:32:37.369Z,9.74
2023-05-19T04:35:22.426Z,9.72
2023-05-19T04:38:07.702Z,9.74
2023-05-19T04:40:52.678Z,9.82
2023-05-19T04:43:37.717Z,9.88
2023-05-19T04:46:22.704Z,9.99
2023-05-19T04:49:07.847Z,9.99
2023-05-19T04:51:55.591Z,10.00
2023-05-19T04:54:40.779Z,9.99
2023-05-19T04:57:25.921Z,9.98
2023-05-19T05:00:10.894Z,10.02
2023-05-19T05:02:55.969Z,10.08
2023-05-19T05:05:40.979Z,10.18
2023-05-19T05:08:25.821Z,10.18
2023-05-19T05:11:10.869Z,10.24
2023-05-19T05:13:55.856Z,10.38
2023-05-19T05:16:41.010Z,10.51
2023-05-19T05:19:26.033Z,10.60
2023-05-19T05:22:11.121Z,10.62
2023-05-19T05:24:56.115Z,10.52
2023-05-19T05:27:41.111Z,10.56
2023-05-19T05:30:26.229Z,10.62
2023-05-19T05:33:11.392Z,10.72
2023-05-19T05:35:56.299Z,10.86
2023-05-19T05:38:41.352Z,11.00
2023-05-19T05:41:26.555Z,11.15
2023-05-19T05:44:11.523Z,11.32
2023-05-19T05:46:56.517Z,11.43
2023-05-19T05:49:41.453Z,11.62
2023-05-19T05:52:26.388Z,11.87
2023-05-19T05:55:11.361Z,12.31
2023-05-19T05:57:56.196Z,12.86
2023-05-19T06:00:41.359Z,13.55
2023-05-19T06:03:26.340Z,13.79
2023-05-19T06:06:11.349Z,14.05
2023-05-19T06:08:56.328Z,14.34
2023-05-19T06:11:41.348Z,14.45
2023-05-19T06:14:26.287Z,14.35
2023-05-19T06:17:11.128Z,14.62
2023-05-19T06:19:56.250Z,14.87
2023-05-19T06:22:41.174Z,14.98
2023-05-19T06:25:26.163Z,14.60
2023-05-19T06:28:11.053Z,14.21
2023-05-19T06:30:56.089Z,13.52
2023-05-19T06:33:40.937Z,13.31
2023-05-19T06:36:26.143Z,13.08
2023-05-19T06:39:10.992Z,13.96
2023-05-19T06:41:55.793Z,14.14
2023-05-19T06:44:40.783Z,14.09
2023-05-19T06:47:25.698Z,13.79
2023-05-19T06:50:10.778Z,13.67
2023-05-19T06:52:55.650Z,13.32
2023-05-19T06:55:54.312Z,13.19
2023-05-19T06:58:42.770Z,12.96
2023-05-19T07:01:27.702Z,13.36
2023-05-19T07:04:13.031Z,13.96
2023-05-19T07:06:57.800Z,14.21
2023-05-19T07:09:42.640Z,14.22
2023-05-19T07:12:27.410Z,14.00
2023-05-19T07:15:12.558Z,14.32
2023-05-19T07:17:57.569Z,14.87
2023-05-19T07:20:42.562Z,14.66
2023-05-19T07:23:27.699Z,15.48
2023-05-19T07:26:12.697Z,16.37
2023-05-19T07:28:57.798Z,15.47
2023-05-19T07:31:42.834Z,15.22
2023-05-19T07:34:27.827Z,15.61
2023-05-19T07:37:12.791Z,16.35
2023-05-19T07:39:57.936Z,17.42
2023-05-19T07:42:42.914Z,16.98
2023-05-19T07:45:27.877Z,16.78
2023-05-19T07:48:13.116Z,16.35
2023-05-19T07:50:57.993Z,15.56
2023-05-19T07:53:43.016Z,15.10
2023-05-19T07:56:27.992Z,15.02
2023-05-19T07:59:12.883Z,15.28
2023-05-19T08:01:57.837Z,15.34
2023-05-19T08:04:42.945Z,15.51
2023-05-19T08:07:27.883Z,15.71
2023-05-19T08:10:12.857Z,15.80
2023-05-19T08:12:58.030Z,16.07
2023-05-19T08:15:43.030Z,16.09
2023-05-19T08:18:27.974Z,16.45
2023-05-19T08:21:12.732Z,16.47
2023-05-19T08:23:57.806Z,15.97
2023-05-19T08:26:42.852Z,15.71
2023-05-19T08:29:27.911Z,15.01
2023-05-19T08:32:13.489Z,15.06
2023-05-19T08:34:58.503Z,15.31
2023-05-19T08:37:43.568Z,15.93
2023-05-19T08:40:28.401Z,16.39
2023-05-19T08:43:13.393Z,16.92
2023-05-19T08:45:58.321Z,17.11
2023-05-19T08:48:43.082Z,16.91
2023-05-19T08:51:28.109Z,16.82
2023-05-19T08:54:13.088Z,16.85
2023-05-19T08:56:58.046Z,16.47
2023-05-19T08:59:43.006Z,16.48
2023-05-19T09:02:28.088Z,16.53
2023-05-19T09:05:12.995Z,17.00
2023-05-19T09:07:57.901Z,17.29
2023-05-19T09:10:42.982Z,17.36
2023-05-19T09:13:28.026Z,17.17
2023-05-19T09:16:13.142Z,16.91
2023-05-19T09:18:57.960Z,17.00
2023-05-19T09:21:44.528Z,16.75
2023-05-19T09:24:29.353Z,16.90
2023-05-19T09:27:14.365Z,16.50
2023-05-19T09:29:59.365Z,16.39
2023-05-19T09:32:44.770Z,16.90
2023-05-19T09:35:29.785Z,16.98
2023-05-19T09:38:14.683Z,16.90
2023-05-19T09:40:59.793Z,17.12
2023-05-19T09:43:44.539Z,16.81
2023-05-19T09:46:29.572Z,16.60
2023-05-19T09:49:14.412Z,16.58
2023-05-19T09:51:59.362Z,16.79
2023-05-19T09:54:44.290Z,16.84
2023-05-19T09:57:29.466Z,16.82
2023-05-19T10:00:14.372Z,16.98
2023-05-19T10:02:59.487Z,16.83
2023-05-19T10:05:44.519Z,16.96
2023-05-19T10:08:29.382Z,16.74
2023-05-19T10:11:14.414Z,17.14
2023-05-19T10:13:59.495Z,17.23
2023-05-19T10:16:44.621Z,17.41
2023-05-19T10:19:29.696Z,17.33
2023-05-19T10:22:15.074Z,17.20
2023-05-19T10:25:00.312Z,17.14
2023-05-19T10:27:45.239Z,17.08
2023-05-19T10:30:30.213Z,17.25
2023-05-19T10:33:15.267Z,17.57
2023-05-19T10:36:00.251Z,17.92
2023-05-19T10:38:45.202Z,17.70
2023-05-19T10:41:30.115Z,17.55
2023-05-19T10:44:15.044Z,17.59
2023-05-19T10:47:00.086Z,17.40
2023-05-19T10:49:45.168Z,17.28
2023-05-19T10:52:30.036Z,17.04
2023-05-19T10:55:15.164Z,16.52
2023-05-19T10:58:00.049Z,16.39
2023-05-19T11:00:45.082Z,16.59
2023-05-19T11:06:15.556Z,16.88
2023-05-19T11:09:00.664Z,17.16
2023-05-19T11:11:45.584Z,17.30
2023-05-19T11:14:30.661Z,17.56
2023-05-19T11:17:15.550Z,17.65
2023-05-19T11:20:00.491Z,17.88
2023-05-19T11:22:45.324Z,18.03
2023-05-19T11:25:30.444Z,18.22
2023-05-19T11:28:15.312Z,18.56
2023-05-19T11:31:00.324Z,18.60
2023-05-19T11:33:45.504Z,18.48
2023-05-19T11:36:30.467Z,18.15
2023-05-19T11:39:15.635Z,17.57
2023-05-19T11:42:00.536Z,17.31
2023-05-19T11:44:45.575Z,16.89
2023-05-19T11:47:33.989Z,16.50
2023-05-19T11:50:24.430Z,16.67
2023-05-19T11:53:09.366Z,16.83
2023-05-19T11:55:54.518Z,16.83
2023-05-19T11:58:39.463Z,16.89
2023-05-19T12:01:24.509Z,17.01
2023-05-19T12:04:09.504Z,17.23
2023-05-19T12:06:54.478Z,17.44
2023-05-19T12:09:39.574Z,17.68
2023-05-19T12:12:24.406Z,17.79
2023-05-19T12:15:09.445Z,17.35
2023-05-19T12:17:54.409Z,17.17
2023-05-19T12:20:39.374Z,17.26
2023-05-19T12:23:24.284Z,17.38
2023-05-19T12:26:09.339Z,17.54
2023-05-19T12:28:54.132Z,17.76
2023-05-19T12:31:39.138Z,17.83
2023-05-19T12:34:24.123Z,18.15
2023-05-19T12:37:09.078Z,18.46
2023-05-19T12:39:54.046Z,18.69
2023-05-19T12:42:38.934Z,18.67
2023-05-19T12:45:23.919Z,18.52
2023-05-19T12:48:08.875Z,18.42
2023-05-19T12:50:53.885Z,17.64
2023-05-19T12:53:38.803Z,17.22
2023-05-19T12:56:23.718Z,16.55
2023-05-19T12:59:08.866Z,16.60
2023-05-19T13:01:53.780Z,16.53
2023-05-19T13:04:39.050Z,16.28
2023-05-19T13:07:23.984Z,16.22
2023-05-19T13:10:09.039Z,16.22
2023-05-19T13:12:53.966Z,16.45
2023-05-19T13:15:38.903Z,16.65
2023-05-19T13:18:23.996Z,16.51
2023-05-19T13:21:08.987Z,16.50
2023-05-19T13:23:54.044Z,16.36
2023-05-19T13:26:38.936Z,16.15
2023-05-19T13:29:25.051Z,15.99
2023-05-19T13:32:10.030Z,15.96
2023-05-19T13:34:55.069Z,16.07
2023-05-19T13:37:40.083Z,15.52
2023-05-19T13:40:24.958Z,15.86
2023-05-19T13:43:10.101Z,16.22
2023-05-19T13:45:55.294Z,16.67
2023-05-19T13:48:40.430Z,16.92
2023-05-19T13:51:25.734Z,16.61
2023-05-19T13:54:11.025Z,16.49
2023-05-19T13:56:56.037Z,16.48
2023-05-19T13:59:57.221Z,16.75
2023-05-19T14:02:45.843Z,16.66
2023-05-19T14:05:30.828Z,16.86
2023-05-19T14:08:15.814Z,17.18
2023-05-19T14:11:00.812Z,17.12
2023-05-19T14:13:45.882Z,17.09
2023-05-19T14:16:31.132Z,16.94
2023-05-19T14:19:15.993Z,16.75
2023-05-19T14:22:01.099Z,16.83
2023-05-19T14:24:45.914Z,16.79
2023-05-19T14:27:31.021Z,16.90
2023-05-19T14:30:16.028Z,16.92
2023-05-19T14:33:01.200Z,17.06
2023-05-19T14:35:46.076Z,16.93
2023-05-19T14:38:30.882Z,16.74
2023-05-19T14:41:15.976Z,16.54
2023-05-19T14:44:00.966Z,16.45
2023-05-19T14:46:46.134Z,16.37
2023-05-19T14:49:31.073Z,16.59
2023-05-19T14:52:16.066Z,16.90
2023-05-19T14:55:01.096Z,17.12
2023-05-19T14:57:45.933Z,17.36
2023-05-19T15:00:30.967Z,17.35
2023-05-19T15:03:15.890Z,17.30
2023-05-19T15:06:01.013Z,17.29
2023-05-19T15:08:45.923Z,17.18
2023-05-19T15:11:31.054Z,17.04
2023-05-19T15:14:16.034Z,16.90
2023-05-19T15:17:01.212Z,16.77
2023-05-19T15:19:46.136Z,16.51
2023-05-19T15:22:31.018Z,16.63
2023-05-19T15:25:15.973Z,16.80
2023-05-19T15:28:00.938Z,16.79
2023-05-19T15:30:46.051Z,16.78
2023-05-19T15:33:30.972Z,16.80
2023-05-19T15:36:16.011Z,16.69
2023-05-19T15:39:01.036Z,16.72
2023-05-19T15:41:46.060Z,16.41
2023-05-19T15:44:31.010Z,16.24
2023-05-19T15:47:16.053Z,16.05
2023-05-19T15:50:01.226Z,15.61
2023-05-19T15:52:46.242Z,15.52
2023-05-19T15:55:31.343Z,15.38
2023-05-19T15:58:16.182Z,15.47
2023-05-19T16:01:01.116Z,15.32
2023-05-19T16:03:46.380Z,15.19
2023-05-19T16:06:31.493Z,15.22
2023-05-19T16:09:16.564Z,15.22
2023-05-19T16:12:01.425Z,15.16
2023-05-19T16:14:46.482Z,15.10
2023-05-19T16:17:31.513Z,15.22
2023-05-19T16:20:16.574Z,15.31
2023-05-19T16:23:01.498Z,15.35
2023-05-19T16:25:46.831Z,15.27
2023-05-19T16:28:31.688Z,15.20
2023-05-19T16:31:16.677Z,15.10
2023-05-19T16:34:01.707Z,15.05
2023-05-19T16:36:46.628Z,15.24
2023-05-19T16:39:31.767Z,15.28
2023-05-19T16:42:16.722Z,15.27
2023-05-19T16:45:01.786Z,15.28
2023-05-19T16:47:46.764Z,15.37
2023-05-19T16:50:31.737Z,15.45
2023-05-19T16:53:16.834Z,15.45
2023-05-19T16:56:01.665Z,15.58
2023-05-19T16:58:46.791Z,15.71
2023-05-19T17:01:31.814Z,15.76
2023-05-19T17:04:16.870Z,15.67
2023-05-19T17:07:01.911Z,15.52
2023-05-19T17:09:46.816Z,15.56
2023-05-19T17:12:31.860Z,15.63
2023-05-19T17:15:16.826Z,15.64
2023-05-19T17:18:01.982Z,15.61
2023-05-19T17:20:46.779Z,15.34
2023-05-19T17:23:31.863Z,15.14
2023-05-19T17:26:16.858Z,15.15
2023-05-19T17:29:01.950Z,15.14
2023-05-19T17:31:47.081Z,15.16
2023-05-19T17:34:32.011Z,15.14
2023-05-19T17:37:16.996Z,15.23
2023-05-19T17:40:01.843Z,15.27
2023-05-19T17:42:47.049Z,15.27
2023-05-19T17:45:32.007Z,15.25
2023-05-19T17:48:17.229Z,15.20
2023-05-19T17:51:03.141Z,15.16
2023-05-19T17:53:49.030Z,15.12
2023-05-19T17:56:34.038Z,15.07
2023-05-19T17:59:18.893Z,15.05
2023-05-19T18:02:03.943Z,15.09
2023-05-19T18:04:48.734Z,15.02
2023-05-19T18:07:33.864Z,14.92
2023-05-19T18:10:18.849Z,14.90
2023-05-19T18:13:03.945Z,14.81
2023-05-19T18:15:48.792Z,14.73
2023-05-19T18:18:33.816Z,14.63
2023-05-19T18:21:18.766Z,14.46
2023-05-19T18:24:03.645Z,14.23
2023-05-19T18:26:48.675Z,14.14
2023-05-19T18:29:33.597Z,14.15
2023-05-19T18:32:18.640Z,14.20
2023-05-19T18:35:03.648Z,14.17
2023-05-19T18:37:48.608Z,14.16
2023-05-19T18:40:34.051Z,14.10
2023-05-19T18:43:19.255Z,13.80
2023-05-19T18:46:04.420Z,13.81
2023-05-19T18:48:49.194Z,13.84
2023-05-19T18:51:34.317Z,13.74
2023-05-19T18:54:19.264Z,13.62
2023-05-19T18:57:04.356Z,13.58
2023-05-19T18:59:49.335Z,13.44
2023-05-19T19:02:34.298Z,13.51
2023-05-19T19:05:19.274Z,13.57
2023-05-19T19:08:04.121Z,13.67
2023-05-19T19:10:49.084Z,13.68
2023-05-19T19:13:33.960Z,13.69
2023-05-19T19:16:18.943Z,13.78
2023-05-19T19:19:03.992Z,13.83
2023-05-19T19:21:48.951Z,13.81
2023-05-19T19:24:34.048Z,13.82
2023-05-19T19:27:18.917Z,13.84
2023-05-19T19:30:03.972Z,13.81
2023-05-19T19:32:49.041Z,13.70
2023-05-19T19:35:33.882Z,13.59
2023-05-19T19:38:18.797Z,13.53
2023-05-19T19:41:03.847Z,13.57
2023-05-19T19:43:48.874Z,13.56
2023-05-19T19:46:33.858Z,13.57
2023-05-19T19:49:18.981Z,13.58
2023-05-19T19:52:03.835Z,13.56
2023-05-19T19:54:48.955Z,13.56
2023-05-19T19:57:33.916Z,13.57
2023-05-19T20:00:18.879Z,13.58
2023-05-19T20:03:05.832Z,13.61
2023-05-19T20:05:51.108Z,13.59
2023-05-19T20:08:36.016Z,13.64
2023-05-19T20:11:21.096Z,13.63
2023-05-19T20:14:05.754Z,13.63
2023-05-19T20:16:50.746Z,13.66
2023-05-19T20:19:35.705Z,13.63
2023-05-19T20:22:20.522Z,13.54
2023-05-19T20:25:05.692Z,13.50
2023-05-19T20:27:50.699Z,13.53
2023-05-19T20:30:35.594Z,13.52
2023-05-19T20:33:20.501Z,13.50
2023-05-19T20:36:05.330Z,13.46
2023-05-19T20:38:50.359Z,13.48
2023-05-19T20:41:35.238Z,13.52
2023-05-19T20:44:20.276Z,13.53
2023-05-19T20:47:05.219Z,13.54
2023-05-19T20:49:50.255Z,13.55
2023-05-19T20:52:35.297Z,13.53
2023-05-19T20:55:20.363Z,13.53
2023-05-19T20:58:05.474Z,13.51
2023-05-19T21:00:50.236Z,13.44
2023-05-19T21:03:35.212Z,13.47
2023-05-19T21:06:20.808Z,13.45
2023-05-19T21:09:05.888Z,13.44
2023-05-19T21:11:50.855Z,13.29
2023-05-19T21:14:35.791Z,13.16
2023-05-19T21:17:20.902Z,13.04
2023-05-19T21:20:05.755Z,12.96
2023-05-19T21:22:50.769Z,12.89
2023-05-19T21:25:35.752Z,12.87
2023-05-19T21:28:20.783Z,12.84
2023-05-19T21:31:05.751Z,12.79
2023-05-19T21:33:50.688Z,12.71
2023-05-19T21:36:35.727Z,12.67
2023-05-19T21:39:20.717Z,12.74
2023-05-19T21:42:06.008Z,12.81
2023-05-19T21:44:50.769Z,12.82
2023-05-19T21:47:35.850Z,12.83
2023-05-19T21:50:20.775Z,12.82
2023-05-19T21:53:05.782Z,12.83
2023-05-19T21:55:50.788Z,12.74
2023-05-19T21:58:35.754Z,12.72
2023-05-19T22:01:20.812Z,12.57
2023-05-19T22:04:05.865Z,12.59
2023-05-19T22:06:50.706Z,12.51
2023-05-19T22:09:35.770Z,12.45
2023-05-19T22:12:20.777Z,12.42
2023-05-19T22:15:05.768Z,12.40
2023-05-19T22:17:50.869Z,12.37
2023-05-19T22:20:35.890Z,12.29
2023-05-19T22:23:20.815Z,12.25
2023-05-19T22:26:05.952Z,12.22
2023-05-19T22:28:50.747Z,12.24
2023-05-19T22:31:35.842Z,12.23
2023-05-19T22:34:20.761Z,12.16
2023-05-19T22:37:05.787Z,12.07
2023-05-19T22:39:50.802Z,12.10
2023-05-19T22:42:35.630Z,12.08
2023-05-19T22:45:20.626Z,12.01
2023-05-19T22:48:05.574Z,11.98
2023-05-19T22:50:50.700Z,12.02
2023-05-19T22:53:35.577Z,12.05
2023-05-19T22:56:20.678Z,12.08
2023-05-19T22:59:05.628Z,12.13
2023-05-19T23:01:50.821Z,12.15
2023-05-19T23:04:35.880Z,12.12
2023-05-19T23:07:20.746Z,12.02
2023-05-19T23:10:05.836Z,11.98
2023-05-19T23:12:50.761Z,11.82
2023-05-19T23:15:35.987Z,11.64
2023-05-19T23:18:20.826Z,11.45
2023-05-19T23:21:05.730Z,11.41
2023-05-19T23:23:50.760Z,11.41
2023-05-19T23:26:35.997Z,11.49
2023-05-19T23:29:20.972Z,11.56
2023-05-19T23:32:05.864Z,11.61
2023-05-19T23:34:51.086Z,11.66
2023-05-19T23:37:35.952Z,11.69
2023-05-19T23:40:21.159Z,11.59
2023-05-19T23:43:06.108Z,11.48
2023-05-19T23:45:51.431Z,11.45
2023-05-19T23:48:36.438Z,11.41
2023-05-19T23:51:21.233Z,11.28
2023-05-19T23:54:06.216Z,11.21
2023-05-19T23:56:51.278Z,11.25
2023-05-19T23:59:36.288Z,11.32
